Time;durP1;ratioP1;P1;durP2;ratioP2;P2;SDS_P1;SDS_P2;PMS_P1;PMS_P2;Temp;Humidity;BMP_temperature;BMP_pressure;BME280_temperature;BME280_humidity;BME280_pressure;Samples;Min_cycle;Max_cycle;Signal;HPM_P1;HPM_P2
2022/07/07 00:00:04;;;;;;;;;;;;;;;20.31;76.59;98816.63;4703538;30;20417;-94
2022/07/07 00:02:31;;;;;;;;;;;;;;;20.28;76.75;98817.25;4676913;30;19980;-93
2022/07/07 00:04:59;;;;;;;;;;;;;;;20.27;76.67;98815.59;4722450;30;20048;-91
2022/07/07 00:07:26;;;;;;;;;;;;;;;20.28;76.63;98817.25;4698272;30;20070;-91
2022/07/07 00:09:53;;;;;;;;;;;;;;;20.28;76.37;98814.50;4717760;30;19977;-91
2022/07/07 00:12:20;;;;;;;;;;;;;;;20.28;76.34;98808.19;4735414;30;20017;-91
2022/07/07 00:14:48;;;;;;;;;;;;;;;20.23;76.56;98806.41;4722734;30;19941;-91
2022/07/07 00:17:16;;;;;;;;;;;;;;;20.21;76.72;98811.38;4722034;30;19957;-92
2022/07/07 00:19:43;;;;;;;;;;;;;;;20.19;76.77;98804.59;4723316;30;19915;-92
2022/07/07 00:22:12;;;;;;;;;;;;;;;20.18;76.70;98811.19;4726734;30;19911;-92
2022/07/07 00:24:44;;;;;;;;;;;;;;;20.20;76.36;98815.25;4721167;30;19931;-93
2022/07/07 00:27:38;;;;;;;;;;;;;;;20.19;76.50;98813.63;4703693;30;20033;-92
2022/07/07 00:30:08;;;;;;;;;;;;;;;20.16;76.50;98811.53;4689970;30;20354;-92
2022/07/07 00:32:35;;;;;;;;;;;;;;;20.17;76.51;98817.81;4703610;30;19930;-92
2022/07/07 00:35:02;;;;;;;;;;;;;;;20.15;76.49;98818.09;4703088;30;20323;-93
2022/07/07 00:37:29;;;;;;;;;;;;;;;20.13;76.43;98809.41;4703084;30;19931;-93
2022/07/07 00:39:59;;;;;;;;;;;;;;;20.09;76.79;98809.22;4703263;30;20026;-94
2022/07/07 00:42:26;;;;;;;;;;;;;;;20.06;76.93;98809.84;4718829;30;20004;-94
2022/07/07 00:44:53;;;;;;;;;;;;;;;20.03;77.02;98809.66;4703191;30;20319;-94
2022/07/07 00:47:20;;;;;;;;;;;;;;;20.00;77.17;98807.53;4717818;30;19938;-94
2022/07/07 00:49:50;;;;;;;;;;;;;;;19.99;77.19;98806.72;4702532;30;20374;-93
2022/07/07 00:52:17;;;;;;;;;;;;;;;19.95;77.16;98807.66;4674106;30;20409;-93
2022/07/07 00:54:55;;;;;;;;;;;;;;;19.92;77.47;98809.88;4702451;30;19931;-92
2022/07/07 00:57:23;;;;;;;;;;;;;;;19.91;77.59;98810.22;4688451;30;19931;-93
2022/07/07 00:59:57;;;;;;;;;;;;;;;19.88;77.51;98806.16;4717934;30;20013;-95
2022/07/07 01:02:27;;;;;;;;;;;;;;;19.89;77.37;98809.72;4673486;30;19930;-94
2022/07/07 01:04:54;;;;;;;;;;;;;;;19.91;77.36;98813.75;4702516;30;20029;-93
2022/07/07 01:07:21;;;;;;;;;;;;;;;19.92;77.19;98814.56;4718087;30;19938;-93
2022/07/07 01:09:48;;;;;;;;;;;;;;;19.90;77.24;98811.31;4688118;30;19937;-93
2022/07/07 01:12:15;;;;;;;;;;;;;;;19.88;77.33;98814.38;4702025;30;19930;-94
2022/07/07 01:14:44;;;;;;;;;;;;;;;19.85;77.30;98820.50;4702170;30;19953;-93
2022/07/07 01:17:11;;;;;;;;;;;;;;;19.83;77.46;98813.72;4687410;30;19937;-92
2022/07/07 01:19:40;;;;;;;;;;;;;;;19.83;77.46;98811.78;4687289;30;20032;-94
2022/07/07 01:22:14;;;;;;;;;;;;;;;19.82;77.40;98826.56;4702093;30;19931;-92
2022/07/07 01:24:41;;;;;;;;;;;;;;;19.81;77.38;98814.00;4701677;30;20395;-93
2022/07/07 01:27:15;;;;;;;;;;;;;;;19.79;77.79;98813.50;4701421;30;19962;-93
2022/07/07 01:29:55;;;;;;;;;;;;;;;19.79;77.63;98815.44;4701006;30;20459;-91
2022/07/07 01:32:22;;;;;;;;;;;;;;;19.78;77.80;98816.56;4717358;30;19930;-93
2022/07/07 01:34:49;;;;;;;;;;;;;;;19.78;77.58;98817.38;4687812;30;19931;-93
2022/07/07 01:37:17;;;;;;;;;;;;;;;19.77;77.38;98812.19;4702159;30;20317;-92
2022/07/07 01:39:44;;;;;;;;;;;;;;;19.76;77.54;98816.88;4716737;30;20131;-93
2022/07/07 01:42:12;;;;;;;;;;;;;;;19.77;77.52;98812.19;4703855;30;19962;-93
2022/07/07 01:44:40;;;;;;;;;;;;;;;19.75;77.60;98807.03;4701868;30;19937;-92
2022/07/07 01:47:10;;;;;;;;;;;;;;;19.76;77.74;98805.91;4716942;30;19935;-92
2022/07/07 01:49:38;;;;;;;;;;;;;;;19.79;77.66;98810.75;4700810;30;19988;-93
2022/07/07 01:52:07;;;;;;;;;;;;;;;19.78;77.50;98806.41;4701446;30;19930;-93
2022/07/07 01:54:35;;;;;;;;;;;;;;;19.79;77.60;98799.00;4672393;30;19930;-93
2022/07/07 01:57:08;;;;;;;;;;;;;;;19.80;77.63;98806.91;4701338;30;19930;-94
2022/07/07 01:59:36;;;;;;;;;;;;;;;19.81;77.30;98814.00;4716902;30;19981;-92
2022/07/07 02:02:05;;;;;;;;;;;;;;;19.80;77.26;98806.91;4673649;30;20366;-93
2022/07/07 02:04:57;;;;;;;;;;;;;;;19.81;77.26;98811.25;4705014;30;20026;-92
2022/07/07 02:07:24;;;;;;;;;;;;;;;19.82;77.10;98804.66;4705670;30;19930;-94
2022/07/07 02:09:51;;;;;;;;;;;;;;;19.81;77.42;98818.69;4707416;30;20025;-92
2022/07/07 02:12:18;;;;;;;;;;;;;;;19.82;77.14;98810.13;4681075;30;19931;-90
2022/07/07 02:14:46;;;;;;;;;;;;;;;19.83;77.43;98810.97;4709335;30;19937;-91
2022/07/07 02:17:13;;;;;;;;;;;;;;;19.82;77.26;98814.81;4705330;30;19931;-93
2022/07/07 02:19:40;;;;;;;;;;;;;;;19.86;77.13;98818.56;4704666;30;19931;-92
2022/07/07 02:22:10;;;;;;;;;;;;;;;19.88;77.01;98810.84;4704555;30;19977;-92
2022/07/07 02:24:38;;;;;;;;;;;;;;;19.87;77.07;98812.75;4704824;30;19952;-94
2022/07/07 02:27:05;;;;;;;;;;;;;;;19.89;77.20;98810.50;4674839;30;19961;-94
2022/07/07 02:29:33;;;;;;;;;;;;;;;19.91;77.06;98811.03;4704832;30;19931;-93
2022/07/07 02:32:04;;;;;;;;;;;;;;;19.97;76.86;98810.91;4700736;30;19931;-93
2022/07/07 02:34:34;;;;;;;;;;;;;;;20.04;76.34;98822.22;4657982;30;19981;-94
2022/07/07 02:37:09;;;;;;;;;;;;;;;20.12;76.18;98826.94;4687829;30;19931;-90
2022/07/07 02:39:57;;;;;;;;;;;;;;;20.14;76.25;98822.78;4686491;30;20674;-86
2022/07/07 02:42:24;;;;;;;;;;;;;;;20.15;75.95;98834.53;4618261;31;20030;-92
2022/07/07 02:44:54;;;;;;;;;;;;;;;20.09;76.16;98842.09;4618006;31;19939;-91
2022/07/07 02:47:24;;;;;;;;;;;;;;;20.07;76.40;98836.09;4632878;31;19932;-92
2022/07/07 02:49:51;;;;;;;;;;;;;;;20.12;76.45;98837.91;4632293;31;19939;-91
2022/07/07 02:52:18;;;;;;;;;;;;;;;20.16;76.29;98841.66;4630106;30;19940;-91
2022/07/07 02:54:45;;;;;;;;;;;;;;;20.15;76.45;98831.81;4640786;30;19984;-91
2022/07/07 02:57:17;;;;;;;;;;;;;;;20.23;76.37;98841.19;4640053;30;19932;-91
2022/07/07 02:59:44;;;;;;;;;;;;;;;20.37;76.35;98830.97;4653271;30;20389;-88
2022/07/07 03:02:11;;;;;;;;;;;;;;;20.45;75.59;98827.47;4645145;30;19971;-90
2022/07/07 03:04:42;;;;;;;;;;;;;;;20.52;75.10;98838.00;4633806;31;20018;-92
2022/07/07 03:07:13;;;;;;;;;;;;;;;20.53;74.93;98834.13;4631502;31;19939;-93
2022/07/07 03:09:40;;;;;;;;;;;;;;;20.52;74.86;98824.31;4638595;30;20007;-92
2022/07/07 03:12:07;;;;;;;;;;;;;;;20.50;74.69;98840.25;4634352;30;19936;-94
2022/07/07 03:14:36;;;;;;;;;;;;;;;20.52;74.75;98827.84;4632677;31;19960;-93
2022/07/07 03:17:07;;;;;;;;;;;;;;;20.52;74.89;98838.81;4654084;30;19949;-92
2022/07/07 03:19:34;;;;;;;;;;;;;;;20.54;74.53;98828.38;4681989;30;19931;-96
2022/07/07 03:22:02;;;;;;;;;;;;;;;20.66;74.43;98837.94;4722908;30;19931;-94
2022/07/07 03:24:31;;;;;;;;;;;;;;;20.72;73.66;98842.97;4711361;30;19931;-93
2022/07/07 03:26:59;;;;;;;;;;;;;;;20.76;73.81;98846.72;4708868;30;19935;-91
2022/07/07 03:29:40;;;;;;;;;;;;;;;20.82;73.54;98847.38;4674677;30;19974;-91
2022/07/07 03:32:07;;;;;;;;;;;;;;;20.87;73.56;98857.41;4693163;30;19984;-92
2022/07/07 03:34:37;;;;;;;;;;;;;;;20.86;73.40;98844.81;4695960;30;19931;-88
2022/07/07 03:37:05;;;;;;;;;;;;;;;20.88;73.56;98839.81;4706656;30;19938;-92
2022/07/07 03:42:33;;;;;;;;;;;;;;;20.93;73.88;98832.25;4748960;30;20009;-92
2022/07/07 03:45:00;;;;;;;;;;;;;;;20.95;73.58;98840.16;4718173;30;20299;-92
2022/07/07 03:47:34;;;;;;;;;;;;;;;21.02;73.53;98843.28;4690227;30;19938;-92
2022/07/07 03:50:01;;;;;;;;;;;;;;;21.09;73.18;98838.13;4705401;30;19961;-92
2022/07/07 03:52:28;;;;;;;;;;;;;;;21.16;73.20;98835.72;4705385;30;19931;-91
2022/07/07 03:55:24;;;;;;;;;;;;;;;21.31;72.50;98831.72;4686999;30;20395;-91
2022/07/07 03:57:59;;;;;;;;;;;;;;;21.36;72.57;98828.00;4735695;30;19930;-92
2022/07/07 04:00:26;;;;;;;;;;;;;;;21.46;72.46;98826.94;4717595;30;19985;-91
2022/07/07 04:02:54;;;;;;;;;;;;;;;21.62;71.70;98837.13;4728957;30;20410;-91
2022/07/07 04:05:21;;;;;;;;;;;;;;;21.59;71.28;98829.53;4735011;30;19953;-92
2022/07/07 04:07:48;;;;;;;;;;;;;;;21.67;71.24;98824.38;4704283;30;19930;-93
2022/07/07 04:14:01;;;;;;;;;;;;;;;21.94;70.05;98831.47;4717311;30;20070;-94
2022/07/07 04:16:29;;;;;;;;;;;;;;;22.03;70.00;98824.84;4721951;30;19941;-94
2022/07/07 04:18:56;;;;;;;;;;;;;;;22.05;69.28;98822.59;4678652;30;19931;-92
2022/07/07 04:21:26;;;;;;;;;;;;;;;22.15;69.26;98828.88;4704433;30;20315;-94
2022/07/07 04:23:54;;;;;;;;;;;;;;;22.25;68.85;98825.81;4690502;30;19930;-93
2022/07/07 04:26:47;;;;;;;;;;;;;;;22.37;68.75;98823.19;4682261;30;19958;-93
2022/07/07 04:29:17;;;;;;;;;;;;;;;22.59;68.29;98824.94;4692317;30;19988;-93
2022/07/07 04:31:52;;;;;;;;;;;;;;;22.70;67.21;98820.69;4680453;30;19942;-94
2022/07/07 04:34:23;;;;;;;;;;;;;;;22.79;67.13;98823.41;4679593;30;19957;-94
2022/07/07 04:36:51;;;;;;;;;;;;;;;22.87;66.82;98814.31;4693303;30;19942;-94
2022/07/07 04:42:00;;;;;;;;;;;;;;;23.23;65.78;98804.75;4705736;30;19942;-95
2022/07/07 04:47:22;;;;;;;;;;;;;;;23.63;64.73;98812.59;4059589;28;19930;-94
2022/07/07 04:49:59;;;;;;;;;;;;;;;23.69;64.38;98811.22;4737082;30;19937;-95
2022/07/07 04:52:28;;;;;;;;;;;;;;;23.67;64.35;98810.75;4711407;30;20325;-96
2022/07/07 04:54:56;;;;;;;;;;;;;;;23.64;64.21;98811.44;4725965;30;19972;-94
2022/07/07 04:57:34;;;;;;;;;;;;;;;23.69;63.95;98807.66;4741704;30;19980;-95
2022/07/07 05:00:02;;;;;;;;;;;;;;;23.81;62.95;98801.47;4741296;30;19989;-94
2022/07/07 05:02:58;;;;;;;;;;;;;;;23.84;63.16;98807.09;4726213;30;19961;-94
2022/07/07 05:06:08;;;;;;;;;;;;;;;24.15;62.85;98812.13;4708953;30;19940;-93
2022/07/07 05:08:35;;;;;;;;;;;;;;;24.39;61.68;98818.91;4702908;30;20404;-95
2022/07/07 05:11:10;;;;;;;;;;;;;;;24.55;61.07;98825.38;4701028;30;19958;-94
2022/07/07 05:13:39;;;;;;;;;;;;;;;24.44;60.96;98827.75;4691556;30;19937;-94
2022/07/07 05:16:40;;;;;;;;;;;;;;;24.58;61.45;98824.69;4679544;30;20013;-95
2022/07/07 05:19:09;;;;;;;;;;;;;;;24.67;60.94;98827.38;4687953;30;19934;-95
2022/07/07 05:21:40;;;;;;;;;;;;;;;24.71;60.59;98819.19;4691361;30;19938;-95
2022/07/07 05:24:11;;;;;;;;;;;;;;;24.81;61.11;98811.31;4691519;30;19925;-94
2022/07/07 05:26:44;;;;;;;;;;;;;;;24.66;60.97;98820.22;4689349;30;19987;-94
2022/07/07 05:29:14;;;;;;;;;;;;;;;24.39;61.94;98816.13;4659374;30;19947;-96
2022/07/07 05:31:46;;;;;;;;;;;;;;;24.05;62.02;98829.09;4670966;30;20006;-95
2022/07/07 05:34:29;;;;;;;;;;;;;;;23.79;63.13;98827.38;4660936;30;20000;-93
2022/07/07 05:36:57;;;;;;;;;;;;;;;23.70;63.38;98829.38;4670410;30;19938;-94
2022/07/07 05:39:24;;;;;;;;;;;;;;;23.68;63.52;98822.59;4688812;30;20265;-91
2022/07/07 05:41:51;;;;;;;;;;;;;;;23.75;63.53;98828.38;4683716;30;19951;-91
2022/07/07 05:44:36;;;;;;;;;;;;;;;23.87;63.41;98819.38;4680853;30;19931;-95
2022/07/07 05:47:11;;;;;;;;;;;;;;;23.95;63.25;98812.97;4673091;30;19932;-93
2022/07/07 05:49:46;;;;;;;;;;;;;;;24.02;63.03;98810.50;4674026;30;19942;-96
2022/07/07 05:52:21;;;;;;;;;;;;;;;24.09;62.53;98810.75;4683012;30;20293;-95
2022/07/07 05:55:01;;;;;;;;;;;;;;;24.20;62.67;98808.38;4665084;24;19959;-92
2022/07/07 05:58:37;;;;;;;;;;;;;;;24.26;62.34;98803.44;4388052;30;10002100;-92
2022/07/07 06:01:05;;;;;;;;;;;;;;;24.28;62.50;98792.88;4719212;30;19945;-92
2022/07/07 06:03:39;;;;;;;;;;;;;;;24.33;62.40;98789.91;4723850;30;20379;-95
2022/07/07 06:10:51;;;;;;;;;;;;;;;24.81;60.37;98789.22;4737867;30;20402;-93
2022/07/07 06:13:29;;;;;;;;;;;;;;;24.89;59.89;98798.53;4696001;30;20332;-95
2022/07/07 06:20:45;;;;;;;;;;;;;;;25.13;58.20;98791.41;4740639;30;19994;-94
2022/07/07 06:23:30;;;;;;;;;;;;;;;25.21;57.98;98807.06;4699644;30;19923;-96
2022/07/07 06:30:42;;;;;;;;;;;;;;;25.46;57.46;98797.59;4750608;30;20009;-93
2022/07/07 06:33:18;;;;;;;;;;;;;;;25.57;56.77;98780.53;4699136;30;19926;-94
2022/07/07 06:40:22;;;;;;;;;;;;;;;25.95;55.57;98785.59;4742225;30;20408;-93
2022/07/07 06:42:55;;;;;;;;;;;;;;;26.12;55.07;98792.78;4750615;30;20375;-95
2022/07/07 06:45:29;;;;;;;;;;;;;;;26.24;53.90;98791.94;4710596;30;20479;-92
2022/07/07 06:48:02;;;;;;;;;;;;;;;26.31;53.62;98792.13;4702968;30;20343;-95
2022/07/07 06:50:37;;;;;;;;;;;;;;;26.40;53.60;98789.19;4701964;30;20338;-93
2022/07/07 06:53:07;;;;;;;;;;;;;;;26.35;52.29;98793.00;4730062;30;20399;-93
2022/07/07 06:55:40;;;;;;;;;;;;;;;26.30;52.63;98799.59;4725937;30;20374;-93
2022/07/07 06:58:12;;;;;;;;;;;;;;;26.31;53.23;98787.38;4724846;30;20379;-94
2022/07/07 07:00:47;;;;;;;;;;;;;;;26.45;53.27;98784.19;4723840;30;20303;-94
2022/07/07 07:03:25;;;;;;;;;;;;;;;26.61;52.34;98767.59;4727813;30;20389;-93
2022/07/07 07:10:24;;;;;;;;;;;;;;;27.08;51.18;98783.38;4738671;30;19953;-93
2022/07/07 07:12:55;;;;;;;;;;;;;;;27.12;51.26;98803.66;4723161;30;20335;-93
2022/07/07 07:15:26;;;;;;;;;;;;;;;27.01;49.71;98789.53;4738980;30;20414;-93
2022/07/07 07:18:02;;;;;;;;;;;;;;;27.06;49.23;98779.38;4724793;30;20399;-93
2022/07/07 07:20:36;;;;;;;;;;;;;;;27.15;49.57;98788.28;4737138;30;20378;-93
2022/07/07 07:23:08;;;;;;;;;;;;;;;27.27;49.27;98788.22;4738179;30;20401;-94
2022/07/07 07:30:00;;;;;;;;;;;;;;;27.67;48.21;98801.78;4739479;30;20345;-92
2022/07/07 07:32:34;;;;;;;;;;;;;;;27.58;48.05;98786.50;4726059;30;20362;-94
2022/07/07 07:35:08;;;;;;;;;;;;;;;27.69;48.36;98783.97;4742211;30;20357;-92
2022/07/07 07:37:40;;;;;;;;;;;;;;;27.75;48.00;98785.25;4730251;30;20386;-91
2022/07/07 07:40:21;;;;;;;;;;;;;;;27.84;47.81;98786.69;4706481;30;19930;-92
2022/07/07 07:43:42;;;;;;;;;;;;;;;28.05;46.64;98794.63;4723072;30;19922;-93
2022/07/07 07:46:47;;;;;;;;;;;;;;;28.18;46.51;98791.69;4719606;30;19929;-94
2022/07/07 07:49:21;;;;;;;;;;;;;;;28.29;45.79;98792.72;4712252;30;20362;-93
2022/07/07 07:52:06;;;;;;;;;;;;;;;28.30;45.96;98785.97;4720128;30;20290;-94
2022/07/07 07:54:53;;;;;;;;;;;;;;;28.40;46.13;98795.66;4734829;30;20346;-96
2022/07/07 07:57:49;;;;;;;;;;;;;;;28.73;45.77;98790.34;4754953;24;19929;-94
2022/07/07 08:00:23;;;;;;;;;;;;;;;28.70;45.60;98791.06;4727329;30;20303;-93
2022/07/07 08:02:55;;;;;;;;;;;;;;;28.49;45.38;98799.06;4740666;30;19929;-93
2022/07/07 08:05:37;;;;;;;;;;;;;;;28.48;45.77;98786.31;4760251;30;19922;-94
2022/07/07 08:08:15;;;;;;;;;;;;;;;28.51;45.24;98786.41;4735421;30;20250;-93
2022/07/07 08:10:44;;;;;;;;;;;;;;;28.71;44.92;98791.88;4726598;30;20021;-93
2022/07/07 08:13:16;;;;;;;;;;;;;;;28.80;44.31;98809.09;4739593;30;20428;-92
2022/07/07 08:20:10;;;;;;;;;;;;;;;29.20;43.69;98818.91;4756004;30;19941;-93
2022/07/07 08:22:44;;;;;;;;;;;;;;;29.30;43.71;98823.81;4729708;30;20274;-94
2022/07/07 08:25:19;;;;;;;;;;;;;;;29.59;43.34;98801.97;4740297;30;20290;-93
2022/07/07 08:27:57;;;;;;;;;;;;;;;29.74;42.74;98814.91;4741502;30;19922;-93
2022/07/07 08:30:39;;;;;;;;;;;;;;;29.92;42.84;98812.34;4730953;30;19985;-94
2022/07/07 08:33:16;;;;;;;;;;;;;;;29.87;42.43;98814.66;4743649;30;20335;-92
2022/07/07 08:36:13;;;;;;;;;;;;;;;29.92;42.35;98800.44;4737395;30;19922;-92
2022/07/07 08:39:18;;;;;;;;;;;;;;;30.28;42.22;98817.56;4712220;30;19923;-94
2022/07/07 08:41:58;;;;;;;;;;;;;;;30.87;40.32;98816.56;4685054;30;20331;-94
2022/07/07 08:44:31;;;;;;;;;;;;;;;31.12;40.36;98824.34;4691515;30;20430;-92
2022/07/07 08:47:04;;;;;;;;;;;;;;;31.74;39.53;98820.75;4687826;30;20319;-93
2022/07/07 08:49:43;;;;;;;;;;;;;;;32.14;38.22;98832.91;4689325;30;19923;-92
2022/07/07 08:53:15;;;;;;;;;;;;;;;31.72;38.27;98820.34;4708576;30;19997;-95
2022/07/07 08:55:52;;;;;;;;;;;;;;;31.42;38.64;98804.63;4723539;24;19953;-93
2022/07/07 09:01:30;;;;;;;;;;;;;;;31.49;38.86;98798.31;4711714;30;19925;-94
2022/07/07 09:04:01;;;;;;;;;;;;;;;31.15;39.14;98814.41;4700324;30;19922;-93
2022/07/07 09:10:58;;;;;;;;;;;;;;;32.00;37.86;98822.47;4736834;30;19945;-93
2022/07/07 09:13:51;;;;;;;;;;;;;;;32.13;37.28;98817.34;4722575;30;19929;-91
2022/07/07 09:16:40;;;;;;;;;;;;;;;32.52;37.17;98813.88;4688543;30;19927;-93
2022/07/07 09:19:29;;;;;;;;;;;;;;;33.27;36.22;98811.09;4688550;30;20340;-95
2022/07/07 09:22:26;;;;;;;;;;;;;;;33.66;35.53;98813.03;4687243;30;19927;-93
2022/07/07 09:25:01;;;;;;;;;;;;;;;33.74;35.41;98808.22;4601736;31;20370;-93
2022/07/07 09:32:06;;;;;;;;;;;;;;;33.17;36.48;98804.34;4638630;30;19948;-94
2022/07/07 09:38:13;;;;;;;;;;;;;;;32.91;36.61;98804.72;4639894;30;20397;-94
2022/07/07 09:38:17;;;;;;;;;;;;;;;32.76;36.83;98801.13;4651288;30;20397;-92
2022/07/07 09:40:49;;;;;;;;;;;;;;;33.37;35.70;98798.28;4624239;30;20318;-90
2022/07/07 09:43:19;;;;;;;;;;;;;;;33.94;35.21;98806.53;4654479;30;20340;-95
2022/07/07 09:46:12;;;;;;;;;;;;;;;33.83;34.71;98781.41;4639928;30;20452;-93
2022/07/07 09:49:30;;;;;;;;;;;;;;;33.55;35.27;98813.09;4648866;30;19924;-96
2022/07/07 09:52:34;;;;;;;;;;;;;;;34.14;34.87;98814.47;4643616;30;20297;-93
2022/07/07 09:55:09;;;;;;;;;;;;;;;33.70;35.08;98797.03;4590858;31;20338;-95
2022/07/07 10:02:06;;;;;;;;;;;;;;;34.15;34.06;98807.66;4645680;30;20452;-92
2022/07/07 10:04:35;;;;;;;;;;;;;;;33.86;34.65;98821.78;4683168;30;19923;-95
2022/07/07 10:07:09;;;;;;;;;;;;;;;32.91;35.96;98811.09;4655969;30;20276;-94
2022/07/07 10:09:43;;;;;;;;;;;;;;;33.83;34.78;98819.75;4656174;30;20390;-92
2022/07/07 10:12:16;;;;;;;;;;;;;;;34.46;33.79;98815.09;4670046;30;20373;-91
2022/07/07 10:14:48;;;;;;;;;;;;;;;34.39;33.75;98817.13;4669524;30;19931;-93
2022/07/07 10:17:17;;;;;;;;;;;;;;;34.83;33.13;98816.44;4684530;30;19930;-94
2022/07/07 10:19:47;;;;;;;;;;;;;;;35.16;32.45;98823.38;4670718;30;20431;-91
2022/07/07 10:22:16;;;;;;;;;;;;;;;35.44;31.95;98812.31;4670568;30;20047;-92
2022/07/07 10:24:51;;;;;;;;;;;;;;;35.32;32.32;98813.63;4674041;30;19923;-94
2022/07/07 10:27:24;;;;;;;;;;;;;;;36.43;31.04;98809.50;4672886;30;19966;-93
2022/07/07 10:30:03;;;;;;;;;;;;;;;36.03;31.09;98820.44;4687906;30;19951;-93
2022/07/07 10:32:41;;;;;;;;;;;;;;;34.95;32.91;98815.16;4694930;30;20359;-93
2022/07/07 10:35:15;;;;;;;;;;;;;;;34.02;34.17;98808.09;4712698;30;19933;-95
2022/07/07 10:42:15;;;;;;;;;;;;;;;34.13;34.40;98818.47;4751402;30;19990;-94
2022/07/07 10:44:57;;;;;;;;;;;;;;;33.96;34.00;98808.94;4735448;30;20247;-94
2022/07/07 10:51:58;;;;;;;;;;;;;;;35.53;31.43;98812.63;4749580;30;19918;-93
2022/07/07 10:54:38;;;;;;;;;;;;;;;35.82;30.81;98796.25;4720126;30;19929;-95
2022/07/07 10:57:11;;;;;;;;;;;;;;;35.16;31.17;98834.59;4713875;30;19922;-96
2022/07/07 11:00:01;;;;;;;;;;;;;;;34.61;32.15;98832.59;4718671;30;19926;-95
2022/07/07 11:02:47;;;;;;;;;;;;;;;34.58;32.00;98810.19;4704019;30;20274;-95
2022/07/07 11:05:20;;;;;;;;;;;;;;;33.81;33.24;98811.78;4697804;30;19929;-94
2022/07/07 11:08:06;;;;;;;;;;;;;;;33.08;34.52;98795.56;4741139;30;20363;-94
2022/07/07 11:10:40;;;;;;;;;;;;;;;33.41;34.48;98787.91;4714185;30;19922;-91
2022/07/07 11:13:30;;;;;;;;;;;;;;;33.16;35.00;98796.34;4699379;30;19929;-92
2022/07/07 11:16:18;;;;;;;;;;;;;;;34.12;32.99;98802.88;4742551;30;20302;-96
2022/07/07 11:18:59;;;;;;;;;;;;;;;35.10;31.92;98793.41;4726214;30;20326;-91
2022/07/07 11:21:35;;;;;;;;;;;;;;;36.00;30.73;98804.44;4736913;30;19929;-92
2022/07/07 11:24:23;;;;;;;;;;;;;;;36.24;30.02;98800.53;4739649;30;20395;-93
2022/07/07 11:31:27;;;;;;;;;;;;;;;33.55;33.48;98812.25;4740103;30;20033;-93
2022/07/07 11:34:00;;;;;;;;;;;;;;;33.98;32.94;98789.72;4741440;30;19962;-94
2022/07/07 11:40:57;;;;;;;;;;;;;;;35.46;30.14;98801.47;4742783;30;19925;-95
2022/07/07 11:43:33;;;;;;;;;;;;;;;35.58;29.59;98815.78;4729142;30;20294;-95
2022/07/07 11:50:35;;;;;;;;;;;;;;;34.31;30.49;98785.59;4750853;30;19918;-92
2022/07/07 11:53:14;;;;;;;;;;;;;;;33.79;31.45;98785.41;4751306;30;19953;-94
2022/07/07 11:55:49;;;;;;;;;;;;;;;33.41;32.43;98774.72;4753117;30;20391;-94
2022/07/07 11:58:30;;;;;;;;;;;;;;;35.37;30.08;98785.09;4718475;30;20409;-95
2022/07/07 12:01:06;;;;;;;;;;;;;;;36.30;28.42;98764.31;4726797;30;20264;-94
2022/07/07 12:03:40;;;;;;;;;;;;;;;36.96;27.86;98765.69;4736522;30;20309;-93
2022/07/07 12:10:53;;;;;;;;;;;;;;;38.33;26.68;98758.91;4738316;30;20354;-92
2022/07/07 12:13:25;;;;;;;;;;;;;;;39.21;25.87;98747.91;4737995;30;20287;-94
2022/07/07 12:20:26;;;;;;;;;;;;;;;39.26;25.03;98743.75;4740859;30;19945;-94
2022/07/07 12:23:08;;;;;;;;;;;;;;;39.21;25.03;98747.91;4722662;30;20367;-94
2022/07/07 12:25:41;;;;;;;;;;;;;;;38.00;26.25;98744.00;4737487;30;20438;-93
2022/07/07 12:28:18;;;;;;;;;;;;;;;37.46;27.13;98731.00;4726016;30;19922;-95
2022/07/07 12:30:51;;;;;;;;;;;;;;;38.29;25.83;98729.25;4740350;30;19923;-94
2022/07/07 12:33:27;;;;;;;;;;;;;;;38.15;25.82;98714.25;4726200;30;19922;-93
2022/07/07 12:36:06;;;;;;;;;;;;;;;36.68;26.94;98713.56;4723328;30;20382;-93
2022/07/07 12:38:52;;;;;;;;;;;;;;;38.10;25.39;98714.78;4774402;24;20287;-94
2022/07/07 12:41:27;;;;;;;;;;;;;;;37.88;25.65;98703.22;4719532;30;20390;-95
2022/07/07 12:44:21;;;;;;;;;;;;;;;36.54;26.75;98685.66;4705502;30;19949;-90
2022/07/07 12:51:15;;;;;;;;;;;;;;;32.38;31.41;98680.59;4719631;30;19919;-92
2022/07/07 12:53:54;;;;;;;;;;;;;;;31.84;32.20;98668.56;4708420;30;20445;-91
2022/07/07 13:00:58;;;;;;;;;;;;;;;31.04;34.33;98697.28;4720458;30;20359;-94
2022/07/07 13:03:29;;;;;;;;;;;;;;;30.90;34.64;98706.34;4694548;30;19923;-94
2022/07/07 13:10:26;;;;;;;;;;;;;;;30.23;35.85;98677.56;4725414;30;19929;-94
2022/07/07 13:13:02;;;;;;;;;;;;;;;30.08;36.38;98675.00;4713931;30;19934;-93
2022/07/07 13:15:34;;;;;;;;;;;;;;;29.95;36.30;98668.91;4685450;30;19931;-95
2022/07/07 13:18:26;;;;;;;;;;;;;;;29.83;37.02;98689.47;4713271;30;19973;-93
2022/07/07 13:21:06;;;;;;;;;;;;;;;29.25;41.58;98715.75;4705643;30;20375;-93
2022/07/07 13:23:35;;;;;;;;;;;;;;;28.02;43.52;98734.34;4732254;30;20012;-90
2022/07/07 13:26:28;;;;;;;;;;;;;;;27.13;44.40;98721.38;4703366;30;20371;-89
2022/07/07 13:29:09;;;;;;;;;;;;;;;26.61;45.77;98712.25;4676854;30;19930;-94
2022/07/07 13:31:41;;;;;;;;;;;;;;;26.48;47.17;98708.75;4658997;30;20335;-96
2022/07/07 13:34:20;;;;;;;;;;;;;;;26.33;48.55;98704.84;4643421;30;20374;-94
2022/07/07 13:41:24;;;;;;;;;;;;;;;26.31;49.17;98712.69;4682108;30;19979;-91
2022/07/07 13:44:14;;;;;;;;;;;;;;;26.23;49.64;98708.16;4667907;30;20404;-93
2022/07/07 13:51:01;;;;;;;;;;;;;;;25.77;47.96;98759.38;4682068;30;19934;-91
2022/07/07 13:53:49;;;;;;;;;;;;;;;25.50;50.11;98765.34;4671465;30;20411;-89
2022/07/07 14:00:55;;;;;;;;;;;;;;;24.43;50.47;98781.19;4684590;30;19937;-93
2022/07/07 14:03:27;;;;;;;;;;;;;;;23.94;51.80;98772.81;4656780;30;20423;-93
2022/07/07 14:10:31;;;;;;;;;;;;;;;22.70;57.24;98874.88;4720927;30;19922;-94
2022/07/07 14:13:07;;;;;;;;;;;;;;;21.84;60.79;98838.09;4691532;30;19923;-93
2022/07/07 14:15:48;;;;;;;;;;;;;;;21.34;63.93;98863.19;4691290;30;20278;-92
2022/07/07 14:18:31;;;;;;;;;;;;;;;20.52;69.73;98822.34;4704293;30;20448;-95
2022/07/07 14:21:02;;;;;;;;;;;;;;;19.50;72.63;98830.28;4749135;24;20393;-89
2022/07/07 14:23:36;;;;;;;;;;;;;;;19.01;77.14;98876.41;4706133;30;20343;-95
2022/07/07 14:30:33;;;;;;;;;;;;;;;18.09;83.74;98879.94;4717967;30;19968;-92
2022/07/07 14:33:08;;;;;;;;;;;;;;;17.81;85.09;98907.09;4707318;30;20364;-93
2022/07/07 14:35:37;;;;;;;;;;;;;;;17.74;81.80;98931.97;4711266;30;19929;-91
2022/07/07 14:38:10;;;;;;;;;;;;;;;17.45;88.10;98958.56;4725194;30;19925;-93
2022/07/07 14:40:45;;;;;;;;;;;;;;;17.19;93.37;98879.78;4700295;30;19949;-93
2022/07/07 14:43:31;;;;;;;;;;;;;;;17.07;95.33;98874.72;4688525;30;19930;-92
2022/07/07 14:50:31;;;;;;;;;;;;;;;17.09;98.64;98958.94;4722853;30;19925;-89
2022/07/07 14:53:12;;;;;;;;;;;;;;;16.89;99.78;98958.06;4711954;30;20519;-92
2022/07/07 15:00:28;;;;;;;;;;;;;;;16.91;100.00;99036.78;4730966;30;19919;-95
2022/07/07 15:07:42;;;;;;;;;;;;;;;17.03;100.00;99077.31;4725685;30;19925;-92
2022/07/07 15:10:27;;;;;;;;;;;;;;;17.08;100.00;99112.72;4713129;30;19994;-94
2022/07/07 15:12:56;;;;;;;;;;;;;;;17.09;100.00;99137.00;4714686;30;19926;-91
2022/07/07 15:15:26;;;;;;;;;;;;;;;17.18;100.00;99156.28;4699308;30;20378;-87
2022/07/07 15:18:05;;;;;;;;;;;;;;;17.22;100.00;99124.63;4703228;30;19917;-91
2022/07/07 15:20:38;;;;;;;;;;;;;;;17.18;100.00;99112.66;4711274;30;21272;-88
2022/07/07 15:23:16;;;;;;;;;;;;;;;17.13;100.00;99115.41;4713825;30;19922;-92
2022/07/07 15:30:12;;;;;;;;;;;;;;;17.05;100.00;99146.03;4746302;30;19925;-91
2022/07/07 15:32:46;;;;;;;;;;;;;;;17.06;100.00;99114.91;4700127;30;19922;-89
2022/07/07 15:35:25;;;;;;;;;;;;;;;17.17;100.00;99105.56;4724472;30;20410;-89
2022/07/07 15:42:21;;;;;;;;;;;;;;;17.20;100.00;99055.91;4736801;30;20423;-90
2022/07/07 15:44:49;;;;;;;;;;;;;;;17.17;100.00;99055.69;4723335;30;19949;-87
2022/07/07 15:51:54;;;;;;;;;;;;;;;17.27;100.00;99018.22;4721983;30;19925;-88
2022/07/07 15:54:23;;;;;;;;;;;;;;;17.40;100.00;99035.00;4711297;30;19934;-88
2022/07/07 16:01:10;;;;;;;;;;;;;;;17.35;100.00;99092.34;4723278;30;19940;-90
2022/07/07 16:10:47;;;;;;;;;;;;;;;17.46;100.00;99074.75;4724391;30;20372;-90